Time;durP1;ratioP1;P1;durP2;ratioP2;P2;SDS_P1;SDS_P2;PMS_P1;PMS_P2;Temp;Humidity;BMP_temperature;BMP_pressure;BME280_temperature;BME280_humidity;BME280_pressure;Samples;Min_cycle;Max_cycle;Signal;HPM_P1;HPM_P2
2022/06/11 00:04:42;;;;;;;8.63;5.13;;;;;;;17.63;70.40;101285.13;5154986;57;1138997;-73
2022/06/11 00:09:49;;;;;;;15.50;5.97;;;;;;;17.66;70.50;101289.73;5152366;56;1138895;-72
2022/06/11 00:14:55;;;;;;;12.30;4.97;;;;;;;17.59;70.53;101285.91;5155800;56;1141016;-73
2022/06/11 00:20:02;;;;;;;14.07;4.90;;;;;;;17.56;70.24;101280.87;5156030;56;1140990;-72
2022/06/11 00:25:08;;;;;;;12.50;4.70;;;;;;;17.29;69.86;101277.61;5154612;56;1141030;-73
2022/06/11 00:30:14;;;;;;;11.47;5.10;;;;;;;17.13;70.83;101276.02;5151135;56;1141101;-72
2022/06/11 00:35:20;;;;;;;8.20;5.23;;;;;;;17.08;71.57;101271.12;5180787;56;1141192;-73
2022/06/11 00:40:29;;;;;;;16.00;6.97;;;;;;;17.05;71.79;101279.91;5156171;56;1138969;-73
2022/06/11 00:45:54;;;;;;;27.13;13.03;;;;;;;17.06;71.78;101282.44;5202208;56;1141083;-72
2022/06/11 00:51:04;;;;;;;4.83;3.10;;;;;;;17.03;72.10;101274.70;5071808;58;1143419;-73
2022/06/11 00:56:23;;;;;;;7.23;3.83;;;;;;;17.01;72.24;101278.50;5072196;57;1139110;-74
2022/06/11 01:01:31;;;;;;;8.67;4.30;;;;;;;16.88;71.97;101281.46;5118121;56;1139114;-73
2022/06/11 01:06:53;;;;;;;10.73;4.97;;;;;;;16.81;72.22;101291.01;5214533;56;1138881;-74
2022/06/11 01:12:27;;;;;;;8.43;4.43;;;;;;;16.77;72.38;101286.46;5155976;57;1141332;-74
2022/06/11 01:17:38;;;;;;;6.37;3.90;;;;;;;16.68;72.48;101287.28;5155655;57;1137193;-73
2022/06/11 01:23:04;;;;;;;8.60;3.93;;;;;;;16.67;72.39;101286.93;5155731;57;1136904;-75
2022/06/11 01:28:52;;;;;;;9.37;4.43;;;;;;;16.61;72.34;101283.47;5155511;57;1137114;-73
2022/06/11 01:34:08;;;;;;;9.93;4.50;;;;;;;16.53;72.76;101283.30;5156524;57;1138972;-73
2022/06/11 01:39:32;;;;;;;7.67;3.83;;;;;;;16.47;72.89;101287.87;5151563;57;1138960;-73
2022/06/11 01:44:42;;;;;;;14.37;4.07;;;;;;;16.41;72.88;101287.08;5200275;56;1139264;-74
2022/06/11 01:49:50;;;;;;;12.60;3.87;;;;;;;16.34;72.67;101290.81;5225550;56;1141009;-74
2022/06/11 01:55:26;;;;;;;11.17;4.20;;;;;;;16.28;72.65;101289.17;5222003;56;1141045;-74
2022/06/11 02:00:35;;;;;;;7.04;3.18;;;;;;;16.21;72.93;101289.34;5156666;56;1141124;-72
2022/06/11 02:06:08;;;;;;;7.97;3.60;;;;;;;16.14;73.31;101295.73;5136054;57;1139185;-74
2022/06/11 02:11:29;;;;;;;7.13;3.33;;;;;;;16.09;73.56;101297.95;5151821;57;1139043;-74
2022/06/11 02:16:40;;;;;;;3.57;2.80;;;;;;;16.01;73.46;101297.31;5151713;57;1138974;-74
2022/06/11 02:22:02;;;;;;;4.43;3.03;;;;;;;15.81;72.89;101301.72;5185612;56;1138947;-75
2022/06/11 02:27:15;;;;;;;6.47;3.10;;;;;;;15.66;73.38;101299.05;5156485;57;1138999;-72
2022/06/11 02:32:25;;;;;;;14.57;3.40;;;;;;;15.56;73.75;101302.16;5138761;56;1139089;-73
2022/06/11 02:37:44;;;;;;;6.50;3.80;;;;;;;15.53;74.47;101297.05;5140087;56;1139226;-73
2022/06/11 02:42:51;;;;;;;8.14;4.08;;;;;;;15.53;74.48;101300.21;5223194;56;1136933;-73
2022/06/11 02:47:57;;;;;;;7.43;3.23;;;;;;;15.55;74.42;101311.14;5152775;55;1136828;-74
2022/06/11 02:53:07;;;;;;;3.93;2.97;;;;;;;15.52;74.15;101316.70;5160522;56;1136905;-73
2022/06/11 02:58:14;;;;;;;5.00;2.90;;;;;;;15.24;73.91;101316.88;5130609;57;1136985;-73
2022/06/11 03:03:22;;;;;;;3.03;2.57;;;;;;;14.95;74.21;101327.31;5166044;56;1136972;-74
2022/06/11 03:08:28;;;;;;;3.33;2.57;;;;;;;14.63;75.17;101331.77;5173273;56;1136893;-73
2022/06/11 03:13:34;;;;;;;5.07;2.80;;;;;;;14.47;76.48;101322.86;5218435;56;1137189;-72
2022/06/11 03:18:41;;;;;;;3.97;2.80;;;;;;;14.53;77.38;101326.81;5214335;56;1136959;-73
2022/06/11 03:23:47;;;;;;;3.77;2.30;;;;;;;14.50;77.76;101329.27;5217498;56;1137041;-74
2022/06/11 03:28:53;;;;;;;5.93;2.60;;;;;;;14.50;78.30;101336.41;5218148;56;1136750;-73
2022/06/11 03:34:00;;;;;;;3.20;2.90;;;;;;;14.36;78.70;101342.30;5241929;56;1136941;-74
2022/06/11 03:39:07;;;;;;;3.30;3.00;;;;;;;14.24;79.62;101343.28;5242495;56;1136889;-74
2022/06/11 03:44:14;;;;;;;4.43;2.97;;;;;;;14.42;81.13;101352.98;5242428;55;1134716;-72
2022/06/11 03:49:20;;;;;;;7.73;2.50;;;;;;;14.56;81.06;101354.52;5262504;56;21170;-72
2022/06/11 03:54:25;;;;;;;2.93;2.60;;;;;;;14.52;81.04;101353.07;5167081;56;1134713;-72
2022/06/11 03:59:31;;;;;;;3.30;2.90;;;;;;;14.66;81.56;101360.81;5155785;57;1139268;-72
2022/06/11 04:04:37;;;;;;;3.47;3.13;;;;;;;14.86;82.44;101352.50;5212327;56;1138983;-73
2022/06/11 04:09:47;;;;;;;2.63;2.50;;;;;;;15.11;82.63;101366.36;5278437;55;1138968;-72
2022/06/11 04:14:53;;;;;;;7.83;2.50;;;;;;;15.14;81.59;101364.74;5242390;55;1139189;-73
2022/06/11 04:20:00;;;;;;;6.80;2.73;;;;;;;15.10;81.73;101360.66;5242337;55;1138906;-72
2022/06/11 04:25:07;;;;;;;10.97;3.27;;;;;;;15.24;82.60;101354.18;5241819;56;1138983;-73
2022/06/11 04:30:15;;;;;;;9.03;3.90;;;;;;;15.32;82.83;101356.19;5206196;56;1141002;-72
2022/06/11 04:35:21;;;;;;;8.33;5.43;;;;;;;15.35;82.85;101349.27;5228505;56;1139382;-73
2022/06/11 04:40:28;;;;;;;19.33;6.70;;;;;;;15.38;83.17;101346.35;5172236;56;1139363;-72
2022/06/11 04:45:34;;;;;;;10.73;5.93;;;;;;;15.42;83.03;101349.13;5184311;56;1140989;-71
2022/06/11 04:50:40;;;;;;;9.17;6.23;;;;;;;15.44;83.03;101348.48;5181761;56;1141034;-74
2022/06/11 04:55:45;;;;;;;9.77;4.20;;;;;;;15.51;83.45;101339.00;5225784;56;1138358;-72
2022/06/11 05:00:52;;;;;;;5.83;3.00;;;;;;;15.59;83.62;101331.70;5242329;55;1139021;-74
2022/06/11 05:05:58;;;;;;;3.77;2.50;;;;;;;15.77;83.56;101340.78;5232210;55;1139447;-71
2022/06/11 05:11:05;;;;;;;2.80;2.20;;;;;;;15.94;83.73;101340.66;5256271;55;1139032;-74
2022/06/11 05:16:15;;;;;;;4.23;1.93;;;;;;;16.07;83.29;101341.27;5251548;55;1138881;-71
2022/06/11 05:21:22;;;;;;;3.53;1.83;;;;;;;16.20;83.11;101343.22;5280940;55;1139070;-73
2022/06/11 05:26:32;;;;;;;3.13;1.60;;;;;;;16.35;82.30;101346.35;5229633;55;1139245;-71
2022/06/11 05:31:38;;;;;;;3.80;2.00;;;;;;;16.47;82.02;101348.80;5230336;55;1138948;-74
2022/06/11 05:36:44;;;;;;;3.87;1.60;;;;;;;16.64;81.75;101347.82;5265229;55;1139140;-75
2022/06/11 05:41:50;;;;;;;4.10;1.13;;;;;;;16.81;82.26;101343.95;5256153;55;1139162;-72
2022/06/11 05:46:56;;;;;;;3.43;1.80;;;;;;;17.18;81.32;101340.11;5260042;55;1139166;-74
2022/06/11 05:52:07;;;;;;;3.17;1.10;;;;;;;17.18;81.32;101340.11;5259110;55;1138957;-75
2022/06/11 05:57:16;;;;;;;6.13;1.20;;;;;;;17.41;79.95;101351.84;5248081;55;1139049;-72
2022/06/11 06:02:24;;;;;;;9.53;3.30;;;;;;;17.61;79.04;101359.33;5242878;55;1139056;-74
2022/06/11 06:07:30;;;;;;;3.60;1.73;;;;;;;17.75;79.23;101355.73;5296354;55;1139153;-73
2022/06/11 06:12:37;;;;;;;7.13;1.60;;;;;;;17.94;79.05;101354.83;5228839;56;1139406;-73
2022/06/11 06:17:44;;;;;;;3.03;1.60;;;;;;;18.16;79.00;101357.16;5242940;55;1139307;-76
2022/06/11 06:22:53;;;;;;;1.43;1.33;;;;;;;18.41;78.39;101358.78;5242887;56;1139117;-74
2022/06/11 06:27:58;;;;;;;4.97;1.30;;;;;;;18.57;77.99;101363.84;5209318;56;1139075;-74
2022/06/11 06:33:05;;;;;;;2.47;1.50;;;;;;;18.72;77.35;101355.32;5234978;56;1139064;-75
2022/06/11 06:38:16;;;;;;;7.20;1.43;;;;;;;18.91;76.98;101365.91;5081745;57;1139067;-75
2022/06/11 06:43:22;;;;;;;4.00;0.90;;;;;;;19.06;76.09;101365.73;5212089;56;1137204;-73
2022/06/11 06:48:29;;;;;;;1.70;1.40;;;;;;;19.29;74.30;101362.90;5159981;56;1136882;-75
2022/06/11 06:53:36;;;;;;;2.17;1.20;;;;;;;19.50;72.10;101368.47;5165484;56;1136408;-74
2022/06/11 06:58:42;;;;;;;0.80;0.80;;;;;;;19.70;72.31;101366.44;5171724;55;1136995;-73
2022/06/11 07:03:48;;;;;;;1.75;0.80;;;;;;;19.92;70.06;101365.89;5133200;57;1136853;-74
2022/06/11 07:08:56;;;;;;;1.80;0.95;;;;;;;20.15;69.49;101356.80;5166817;57;1136928;-73
2022/06/11 07:14:04;;;;;;;1.10;1.05;;;;;;;20.26;68.15;101357.84;5195122;56;1136827;-73
2022/06/11 07:19:21;;;;;;;1.02;1.02;;;;;;;20.24;68.08;101358.51;5216356;56;1137254;-73
2022/06/11 07:24:32;;;;;;;7.35;1.35;;;;;;;20.34;67.65;101352.49;5179573;56;1136870;-74
2022/06/11 07:29:50;;;;;;;3.17;1.20;;;;;;;20.54;65.47;101355.30;5178770;56;1136795;-75
2022/06/11 07:34:58;;;;;;;1.80;1.30;;;;;;;20.74;63.53;101357.20;5181444;56;1134786;-74
2022/06/11 07:40:06;;;;;;;2.70;1.00;;;;;;;20.92;64.02;101357.08;5143861;56;1134896;-73
2022/06/11 07:45:12;;;;;;;1.90;1.27;;;;;;;21.13;61.17;101360.61;5165663;56;1138981;-71
2022/06/11 07:50:18;;;;;;;1.75;1.05;;;;;;;21.23;61.79;101362.69;5216858;56;1138900;-74
2022/06/11 07:55:25;;;;;;;2.00;0.95;;;;;;;21.26;62.44;101357.78;5240130;56;1139171;-75
2022/06/11 08:00:36;;;;;;;2.70;1.27;;;;;;;21.47;59.15;101356.45;5244791;56;1138928;-74
2022/06/11 08:05:42;;;;;;;3.33;1.00;;;;;;;21.66;60.31;101353.40;5219936;56;1139014;-75
2022/06/11 08:10:52;;;;;;;2.10;1.50;;;;;;;21.97;58.28;101352.16;5179890;56;1139012;-75
2022/06/11 08:16:03;;;;;;;4.62;1.40;;;;;;;22.15;59.67;101349.27;5179293;56;1138373;-74
2022/06/11 08:21:15;;;;;;;4.75;1.50;;;;;;;22.32;57.65;101345.47;5157904;57;1139115;-76
2022/06/11 08:26:22;;;;;;;3.72;1.30;;;;;;;22.43;59.07;101345.09;5157994;57;1138941;-75
2022/06/11 08:31:28;;;;;;;3.68;1.52;;;;;;;22.52;57.47;101348.58;5166384;56;1138916;-76
2022/06/11 08:36:33;;;;;;;1.50;1.02;;;;;;;22.72;59.12;101345.27;5203079;56;1139040;-74
2022/06/11 08:41:40;;;;;;;3.08;0.82;;;;;;;22.97;55.11;101338.37;5208770;56;1138996;-77
2022/06/11 08:46:48;;;;;;;4.47;1.55;;;;;;;23.03;54.25;101336.33;5190604;56;1138921;-75
2022/06/11 08:52:17;;;;;;;1.80;0.95;;;;;;;23.17;55.44;101336.88;5244395;56;1138943;-75
2022/06/11 08:58:03;;;;;;;4.92;0.98;;;;;;;23.25;51.69;101330.05;5244432;56;1139305;-73
2022/06/11 09:03:25;;;;;;;2.05;1.12;;;;;;;23.35;51.51;101329.31;5273026;55;1138971;-74
2022/06/11 09:08:55;;;;;;;2.40;0.95;;;;;;;23.48;50.84;101331.38;5055036;57;1139066;-73
2022/06/11 09:14:18;;;;;;;5.40;1.60;;;;;;;23.64;51.42;101331.25;5215630;56;1136854;-75
2022/06/11 09:19:47;;;;;;;2.03;0.93;;;;;;;23.95;51.00;101322.98;5091334;57;1136840;-75
2022/06/11 09:25:06;;;;;;;3.77;1.35;;;;;;;24.14;51.71;101319.68;5072344;58;1137042;-75
2022/06/11 09:30:24;;;;;;;4.17;0.95;;;;;;;24.33;49.02;101313.40;5045666;58;1137154;-75
2022/06/11 09:35:58;;;;;;;1.02;0.68;;;;;;;24.43;47.65;101318.85;5073434;58;1167041;-73
2022/06/11 09:41:32;;;;;;;2.17;1.27;;;;;;;24.54;49.54;101299.41;5070409;57;1139422;-73
2022/06/11 09:47:00;;;;;;;7.45;1.27;;;;;;;24.88;48.46;101301.44;5068236;57;1138842;-73
2022/06/11 09:52:34;;;;;;;6.33;1.82;;;;;;;24.95;44.61;101294.75;5070631;57;1138684;-75
2022/06/11 09:58:05;;;;;;;1.80;1.15;;;;;;;25.06;47.51;101290.67;5136371;57;1139344;-75
2022/06/11 10:03:30;;;;;;;2.15;0.82;;;;;;;25.27;46.85;101281.70;5142898;57;1138962;-75
2022/06/11 10:08:48;;;;;;;3.97;1.30;;;;;;;25.46;46.21;101287.27;5099867;57;1138953;-74
2022/06/11 10:14:30;;;;;;;2.42;1.00;;;;;;;25.44;45.52;101285.78;5055323;57;1139180;-76
2022/06/11 10:20:08;;;;;;;2.83;1.22;;;;;;;25.43;46.38;101282.75;5051460;58;1136864;-74
2022/06/11 10:25:30;;;;;;;3.85;1.10;;;;;;;25.42;43.53;101288.69;5078718;57;1136865;-75
2022/06/11 10:31:07;;;;;;;6.75;1.50;;;;;;;25.55;45.03;101288.77;5142904;56;1135059;-75
2022/06/11 10:36:35;;;;;;;3.47;0.88;;;;;;;25.67;45.37;101290.95;5172282;56;1139482;-75
2022/06/11 10:42:13;;;;;;;3.12;0.93;;;;;;;25.91;43.26;101284.55;5239085;56;1138922;-75
2022/06/11 10:47:32;;;;;;;4.45;1.10;;;;;;;25.85;43.97;101273.66;5175933;56;1139018;-74
2022/06/11 10:53:13;;;;;;;1.55;1.12;;;;;;;25.69;43.41;101276.69;5207567;56;1138896;-74
2022/06/11 10:59:02;;;;;;;6.15;1.75;;;;;;;25.33;43.90;101279.05;5101462;57;1138986;-73
2022/06/11 11:04:24;;;;;;;4.67;1.32;;;;;;;25.28;45.03;101267.13;5134265;57;1139212;-73
2022/06/11 11:09:28;;;;;;;1.60;0.98;;;;;;;25.68;44.27;101256.89;5093711;57;1136968;-74
2022/06/11 11:14:44;;;;;;;1.57;0.95;;;;;;;25.79;43.19;101254.99;5079338;58;1136990;-75
2022/06/11 11:25:21;;;;;;;1.95;1.10;;;;;;;26.17;41.05;101256.70;4995364;59;1136955;-74
2022/06/11 11:30:37;;;;;;;4.90;1.10;;;;;;;26.03;41.57;101254.98;5147118;57;1136788;-76
2022/06/11 11:35:43;;;;;;;4.30;1.12;;;;;;;25.85;42.17;101249.27;5158980;57;1137216;-73
2022/06/11 11:41:03;;;;;;;6.78;1.02;;;;;;;26.11;41.51;101248.56;5155720;57;1134821;-72
2022/06/11 11:46:23;;;;;;;0.82;0.82;;;;;;;26.31;42.31;101236.44;5187519;56;1138912;-74
2022/06/11 11:51:39;;;;;;;2.05;1.00;;;;;;;26.57;42.77;101240.06;5173018;56;1138880;-75
2022/06/11 11:56:58;;;;;;;6.00;1.10;;;;;;;26.88;40.10;101237.27;5167167;56;1139037;-73
2022/06/11 12:02:31;;;;;;;1.98;1.12;;;;;;;26.93;40.02;101232.91;5196536;55;1138971;-74
2022/06/11 12:07:41;;;;;;;1.20;0.90;;;;;;;26.63;37.34;101239.73;5188413;55;1138958;-75
2022/06/11 12:12:53;;;;;;;4.15;1.07;;;;;;;26.29;38.53;101231.22;5197582;56;1138966;-75
2022/06/11 12:18:10;;;;;;;7.53;1.02;;;;;;;26.39;39.96;101230.84;5160811;55;1139201;-74
2022/06/11 12:23:46;;;;;;;5.78;1.20;;;;;;;26.76;40.30;101221.27;5195441;56;1138986;-72
2022/06/11 12:29:07;;;;;;;4.15;1.00;;;;;;;27.07;38.41;101222.03;5155711;56;1138896;-72
2022/06/11 12:34:20;;;;;;;2.30;1.15;;;;;;;27.25;36.84;101212.20;5155875;56;1139111;-74
2022/06/11 12:39:48;;;;;;;10.10;1.62;;;;;;;27.36;37.76;101216.66;5196777;56;1139160;-72
2022/06/11 12:45:25;;;;;;;3.90;1.20;;;;;;;27.39;37.99;101213.00;5233184;56;1139243;-74
2022/06/11 12:51:03;;;;;;;1.30;1.07;;;;;;;27.44;37.46;101215.93;5159583;56;1137076;-74
2022/06/11 12:56:45;;;;;;;3.47;1.00;;;;;;;27.65;36.07;101202.64;5150974;56;1134785;-73
2022/06/11 13:02:35;;;;;;;1.45;0.93;;;;;;;27.64;37.56;101206.41;5203710;56;1138909;-75
2022/06/11 13:08:00;;;;;;;3.20;1.40;;;;;;;27.61;36.70;101202.22;5185575;56;1138919;-74
2022/06/11 13:13:39;;;;;;;4.03;1.55;;;;;;;27.73;36.94;101192.87;5155787;56;1138951;-73
2022/06/11 13:19:35;;;;;;;1.50;0.95;;;;;;;27.68;35.65;101202.70;5155622;57;1139033;-73
2022/06/11 13:25:01;;;;;;;4.47;1.20;;;;;;;27.57;36.28;101201.50;5227156;55;1137006;-75
2022/06/11 13:30:40;;;;;;;2.33;1.13;;;;;;;27.54;36.20;101193.73;5332744;55;1136911;-71
2022/06/11 13:35:50;;;;;;;2.95;1.20;;;;;;;27.65;37.90;101186.33;5263081;55;1136821;-72
2022/06/11 13:41:18;;;;;;;3.17;1.10;;;;;;;27.75;36.97;101184.50;5221505;56;1136992;-73
2022/06/11 13:46:50;;;;;;;7.92;1.72;;;;;;;27.78;37.57;101182.72;5280658;55;1138916;-76
2022/06/11 13:52:00;;;;;;;7.33;1.95;;;;;;;27.78;36.12;101180.84;5022158;58;1138946;-74
2022/06/11 13:57:22;;;;;;;2.40;0.88;;;;;;;27.80;36.73;101170.58;5137923;56;1138962;-74
2022/06/11 14:03:12;;;;;;;2.15;1.12;;;;;;;27.85;33.87;101172.63;5216289;56;1138972;-74
2022/06/11 14:08:21;;;;;;;3.52;2.15;;;;;;;27.74;35.18;101172.80;5062892;57;1139289;-73
2022/06/11 14:14:05;;;;;;;3.58;1.20;;;;;;;27.52;36.45;101170.02;5076213;57;1139079;-72
2022/06/11 14:19:24;;;;;;;4.08;1.17;;;;;;;27.50;36.62;101168.87;5071747;57;1138993;-72
2022/06/11 14:24:49;;;;;;;2.67;1.15;;;;;;;27.34;36.56;101163.09;5079265;57;1139556;-75
2022/06/11 14:30:14;;;;;;;2.55;1.15;;;;;;;27.31;38.74;101162.99;5032891;58;1137195;-74
2022/06/11 14:35:23;;;;;;;4.67;1.22;;;;;;;27.31;37.62;101162.47;5027819;58;1136873;-77
2022/06/11 14:40:36;;;;;;;3.40;1.20;;;;;;;27.20;38.44;101156.83;5129959;57;1137167;-76
2022/06/11 14:45:55;;;;;;;3.80;1.05;;;;;;;27.39;38.61;101149.69;5292150;55;1136285;-74
2022/06/11 14:51:11;;;;;;;2.72;1.27;;;;;;;27.62;37.49;101146.82;5151647;56;1136860;-73
2022/06/11 14:56:27;;;;;;;3.35;0.90;;;;;;;27.72;36.63;101148.23;5138657;57;1136917;-74
2022/06/11 15:01:40;;;;;;;3.22;1.40;;;;;;;27.72;37.29;101139.55;5138258;57;1134929;-72
2022/06/11 15:06:49;;;;;;;6.97;1.17;;;;;;;27.77;36.73;101140.27;5108152;56;1138977;-72
2022/06/11 15:12:03;;;;;;;3.57;1.27;;;;;;;27.83;37.41;101136.67;5142881;57;1139139;-72
2022/06/11 15:17:13;;;;;;;6.00;1.10;;;;;;;27.91;37.52;101141.87;5140416;57;1138854;-73
2022/06/11 15:22:29;;;;;;;3.10;1.50;;;;;;;27.74;37.80;101142.89;5138691;57;1138896;-73
2022/06/11 15:27:38;;;;;;;5.62;1.62;;;;;;;27.47;38.70;101142.15;5139306;56;1138931;-73
2022/06/11 15:32:44;;;;;;;8.45;1.22;;;;;;;27.27;38.26;101138.66;5142111;56;1138855;-75
2022/06/11 15:37:54;;;;;;;8.45;1.70;;;;;;;27.03;38.93;101144.78;5142554;57;1138991;-74
2022/06/11 15:42:58;;;;;;;2.77;1.00;;;;;;;26.87;39.06;101144.66;5123966;56;1139122;-74
2022/06/11 15:48:18;;;;;;;4.90;1.45;;;;;;;26.81;40.06;101140.91;5196096;56;1139275;-75
2022/06/11 15:53:26;;;;;;;3.50;1.30;;;;;;;26.86;40.11;101138.40;5173185;56;1138887;-74
2022/06/11 15:58:38;;;;;;;43.70;5.50;;;;;;;26.86;40.48;101134.85;5142664;57;1139006;-73
2022/06/11 16:03:56;;;;;;;47.05;6.37;;;;;;;26.79;39.91;101132.66;5142647;57;1140989;-76
2022/06/11 16:09:06;;;;;;;4.62;1.55;;;;;;;26.65;41.07;101131.83;5141652;56;1141478;-74
2022/06/11 16:14:20;;;;;;;3.83;1.50;;;;;;;26.56;41.86;101138.00;5124377;56;1139086;-74
2022/06/11 16:19:32;;;;;;;8.25;1.32;;;;;;;26.46;42.59;101136.73;5086991;56;1138245;-73
2022/06/11 16:24:47;;;;;;;6.67;1.10;;;;;;;26.41;42.78;101128.40;5081838;57;1138999;-75
2022/06/11 16:30:00;;;;;;;3.62;1.42;;;;;;;26.33;42.55;101132.13;5133819;57;1139035;-74
2022/06/11 16:35:18;;;;;;;4.10;1.32;;;;;;;26.31;42.40;101131.50;5138768;56;1138886;-74
2022/06/11 16:40:38;;;;;;;3.15;2.85;;;;;;;26.32;42.97;101129.10;5162985;55;1137198;-74
2022/06/11 16:45:53;;;;;;;2.40;1.70;;;;;;;26.37;42.74;101126.62;5218071;56;1136950;-75
2022/06/11 16:56:39;;;;;;;2.15;1.37;;;;;;;26.30;43.17;101130.34;5034963;58;1136785;-74
2022/06/11 17:01:52;;;;;;;2.25;1.25;;;;;;;26.31;42.98;101121.17;5113997;56;1136472;-74
2022/06/11 17:07:08;;;;;;;5.65;2.27;;;;;;;26.25;43.30;101124.17;5142099;56;1134834;-74
2022/06/11 17:12:37;;;;;;;6.57;2.70;;;;;;;26.25;43.96;101125.53;5213738;56;1138977;-73
2022/06/11 17:17:57;;;;;;;7.00;1.65;;;;;;;26.26;44.30;101118.55;5217895;55;1139075;-74
2022/06/11 17:23:16;;;;;;;2.87;1.92;;;;;;;26.24;44.46;101122.51;5243331;56;1138978;-73
2022/06/11 17:28:30;;;;;;;3.20;1.70;;;;;;;26.25;44.67;101106.55;5181659;56;1139395;-74
2022/06/11 17:34:06;;;;;;;;;;;;;;;;;;;;;
2022/06/11 17:39:27;;;;;;;9.90;3.20;;;;;;;26.21;45.02;101097.98;4758062;61;1139375;-75
2022/06/11 17:44:35;;;;;;;;;;;;;;;26.22;45.13;101105.60;4699333;62;1139136;-73
2022/06/11 17:49:51;;;;;;;5.40;1.72;;;;;;;26.18;45.51;101114.67;4885945;59;976219;-73
2022/06/11 17:54:55;;;;;;;7.15;3.45;;;;;;;26.13;45.84;101111.73;4845537;59;1137016;-74
2022/06/11 18:00:02;;;;;;;1171.45;739.92;;;;;;;26.01;46.09;101102.54;4876263;60;1139106;-74
2022/06/11 18:05:23;;;;;;;115.67;70.67;;;;;;;26.02;46.39;101108.80;4819167;60;1148990;-74
2022/06/11 18:10:33;;;;;;;332.05;232.35;;;;;;;25.98;46.99;101102.94;5084647;56;1145186;-73
2022/06/11 18:15:46;;;;;;;42.35;25.10;;;;;;;25.98;47.59;101111.08;5162451;56;1145155;-74
2022/06/11 18:20:54;;;;;;;30.90;20.45;;;;;;;25.99;48.03;101105.14;5162330;56;1141041;-74
2022/06/11 18:26:00;;;;;;;18.62;11.00;;;;;;;25.99;48.72;101108.69;5210704;56;1141022;-73
2022/06/11 18:31:10;;;;;;;13.75;6.78;;;;;;;25.95;49.31;101106.09;5220862;56;1141263;-73
2022/06/11 18:36:16;;;;;;;19.25;6.45;;;;;;;25.93;49.25;101101.39;5217349;56;1138945;-74
2022/06/11 18:41:21;;;;;;;13.08;5.60;;;;;;;25.89;49.46;101106.90;5169610;56;1139145;-74
2022/06/11 18:46:27;;;;;;;8.55;4.78;;;;;;;25.95;49.82;101106.61;5066975;57;1139274;-74
2022/06/11 18:51:33;;;;;;;11.50;8.13;;;;;;;25.95;49.61;101110.67;5025269;58;1137185;-73
2022/06/11 18:56:41;;;;;;;10.00;5.40;;;;;;;25.87;49.65;101119.30;5116436;57;1138985;-75
2022/06/11 19:01:55;;;;;;;13.28;2.85;;;;;;;25.81;50.46;101117.42;5122150;57;1138829;-74
2022/06/11 19:07:06;;;;;;;7.22;3.15;;;;;;;25.77;51.42;101128.34;5126316;57;1139280;-74
2022/06/11 19:12:13;;;;;;;8.08;3.35;;;;;;;25.73;52.31;101128.42;5121414;57;1136830;-74
2022/06/11 19:17:19;;;;;;;7.33;3.10;;;;;;;25.67;52.66;101131.94;5208766;56;1137119;-75
2022/06/11 19:22:31;;;;;;;6.92;3.50;;;;;;;25.58;53.01;101142.09;5200724;56;1135262;-74
2022/06/11 19:27:35;;;;;;;5.64;3.86;;;;;;;25.51;53.61;101142.57;5066919;57;1138873;-75
2022/06/11 19:32:43;;;;;;;8.40;4.00;;;;;;;25.51;54.30;101145.83;5026992;57;1138996;-73
2022/06/11 19:37:49;;;;;;;24.65;5.37;;;;;;;25.45;54.41;101143.39;5122111;57;1138868;-75
2022/06/11 19:43:00;;;;;;;18.92;5.28;;;;;;;25.37;54.58;101146.77;5151588;55;1141039;-75
2022/06/11 19:48:06;;;;;;;25.52;7.22;;;;;;;25.24;55.08;101146.19;5205405;55;1141018;-73
2022/06/11 19:53:14;;;;;;;30.88;8.68;;;;;;;25.15;55.63;101148.23;5143966;55;1141089;-74
2022/06/11 19:58:20;;;;;;;17.82;8.94;;;;;;;25.03;56.25;101152.53;5151772;55;1141019;-75
2022/06/11 20:03:26;;;;;;;21.65;8.58;;;;;;;24.81;56.07;101150.35;5152809;55;1141079;-75
2022/06/11 20:08:35;;;;;;;28.30;9.98;;;;;;;24.68;56.24;101150.77;5195964;56;1141040;-75
2022/06/11 20:13:44;;;;;;;31.05;10.78;;;;;;;24.51;56.66;101151.05;5238392;56;1140993;-74
2022/06/11 20:18:49;;;;;;;33.55;11.22;;;;;;;24.40;57.18;101150.73;5239127;56;1143164;-74
2022/06/11 20:23:55;;;;;;;44.63;13.20;;;;;;;24.31;57.55;101154.59;5239322;56;1143176;-75
2022/06/11 20:29:02;;;;;;;46.20;13.95;;;;;;;24.21;57.63;101154.88;5240800;56;1143143;-74
2022/06/11 20:34:09;;;;;;;104.87;18.42;;;;;;;24.12;57.88;101152.00;5235022;56;1143192;-73
2022/06/11 20:39:15;;;;;;;52.48;14.18;;;;;;;24.00;58.10;101155.69;5236606;56;1145232;-75
2022/06/11 20:44:21;;;;;;;21.60;9.30;;;;;;;23.90;58.37;101155.17;5224876;56;1143300;-74
2022/06/11 20:49:41;;;;;;;20.15;6.12;;;;;;;23.79;58.47;101150.27;5193314;56;1141309;-73
2022/06/11 20:54:48;;;;;;;28.77;10.80;;;;;;;23.65;58.34;101158.73;5142137;57;1141180;-74
2022/06/11 20:59:54;;;;;;;54.40;19.55;;;;;;;23.53;58.70;101158.86;5141332;57;1143163;-74
2022/06/11 21:05:00;;;;;;;61.40;20.45;;;;;;;23.43;59.07;101155.59;5142453;57;1143129;-73
2022/06/11 21:10:09;;;;;;;47.08;17.15;;;;;;;23.27;59.39;101151.73;5211304;55;1143196;-73
2022/06/11 21:15:19;;;;;;;46.13;16.75;;;;;;;23.12;60.01;101147.17;5212781;55;1143368;-73
2022/06/11 21:20:29;;;;;;;50.67;17.95;;;;;;;23.02;60.26;101155.22;5187224;56;1143119;-72
2022/06/11 21:25:39;;;;;;;41.92;15.72;;;;;;;22.91;60.72;101155.68;5215229;55;1143097;-73
2022/06/11 21:30:46;;;;;;;51.30;18.40;;;;;;;22.86;61.00;101166.17;5228352;56;1143179;-72
2022/06/11 21:35:52;;;;;;;57.65;20.08;;;;;;;22.79;61.23;101167.40;5204075;55;1143080;-73
2022/06/11 21:46:21;;;;;;;50.85;17.90;;;;;;;22.59;61.47;101166.22;5168971;56;1141090;-72
2022/06/11 21:51:28;;;;;;;43.02;16.05;;;;;;;22.47;61.50;101164.44;5138280;56;1141105;-73
2022/06/11 21:56:36;;;;;;;29.45;11.93;;;;;;;22.38;61.70;101155.59;5131476;57;1141103;-73
2022/06/11 22:01:52;;;;;;;34.20;13.22;;;;;;;22.26;61.59;101160.24;5132727;57;1141110;-73
2022/06/11 22:06:59;;;;;;;42.03;15.98;;;;;;;22.16;61.98;101159.11;5091930;57;1141041;-73
2022/06/11 22:12:05;;;;;;;35.35;13.80;;;;;;;22.07;62.29;101161.54;5100819;56;1141108;-73
2022/06/11 22:17:14;;;;;;;21.62;8.18;;;;;;;22.00;62.82;101156.52;5088039;57;1141103;-72
2022/06/11 22:22:24;;;;;;;34.30;12.73;;;;;;;21.88;62.97;101163.30;5084494;57;1139033;-72
2022/06/11 22:27:33;;;;;;;21.40;11.10;;;;;;;21.80;63.42;101159.31;5109622;57;1141142;-74
2022/06/11 22:32:42;;;;;;;16.90;9.58;;;;;;;21.72;63.92;101161.53;5103716;57;1141048;-73
2022/06/11 22:37:48;;;;;;;26.12;10.32;;;;;;;21.68;64.37;101152.98;5124839;57;1138995;-73
2022/06/11 22:42:54;;;;;;;29.77;12.98;;;;;;;21.64;64.67;101153.00;5132653;57;1141359;-73
2022/06/11 22:48:01;;;;;;;31.02;11.83;;;;;;;21.58;64.95;101152.34;5124395;56;1141256;-73
2022/06/11 22:53:08;;;;;;;26.97;10.65;;;;;;;21.56;65.23;101142.76;5124799;57;1139000;-73
2022/06/11 22:58:15;;;;;;;29.25;10.35;;;;;;;21.47;65.42;101146.51;5147279;57;21749;-74
2022/06/11 23:03:25;;;;;;;28.30;9.25;;;;;;;21.38;65.75;101146.55;5131813;57;1138903;-73
2022/06/11 23:08:31;;;;;;;23.02;9.28;;;;;;;21.31;65.98;101149.59;5131764;57;1141048;-74
2022/06/11 23:13:37;;;;;;;39.53;11.97;;;;;;;21.25;66.39;101152.13;5131621;57;1141012;-72
2022/06/11 23:18:43;;;;;;;38.00;12.55;;;;;;;21.19;66.64;101144.26;5130605;57;1143147;-72
2022/06/11 23:23:55;;;;;;;35.25;13.32;;;;;;;21.12;66.62;101149.95;5130632;57;1143085;-75
2022/06/11 23:29:03;;;;;;;36.48;14.13;;;;;;;21.10;67.30;101145.75;5130881;57;1143456;-72
2022/06/11 23:34:11;;;;;;;14.87;7.70;;;;;;;21.11;67.69;101145.58;5132448;56;1143119;-73
2022/06/11 23:39:17;;;;;;;9.73;5.35;;;;;;;21.01;67.55;101151.66;5164723;56;1140984;-72
2022/06/11 23:45:37;;;;;;;9.48;5.28;;;;;;;20.89;68.48;101154.38;5140053;57;1138826;-72
2022/06/11 23:49:33;;;;;;;12.25;5.50;;;;;;;20.59;70.14;101181.45;5220656;55;1138919;-72
2022/06/11 23:54:40;;;;;;;13.22;6.08;;;;;;;20.00;69.95;101172.63;5243845;55;1141093;-73
2022/06/11 23:59:46;;;;;;;7.45;4.90;;;;;;;20.00;70.84;101178.83;5244273;55;1141080;-72
